Time;durP1;ratioP1;P1;durP2;ratioP2;P2;SDS_P1;SDS_P2;PMS_P1;PMS_P2;Temp;Humidity;BMP_temperature;BMP_pressure;BME280_temperature;BME280_humidity;BME280_pressure;Samples;Min_cycle;Max_cycle;Signal;HPM_P1;HPM_P2
2023/06/26 00:00:16;;;;;;;17.70;14.85;;;24.10;91.80;;;;;;5033450;28;20120;-65
2023/06/26 00:02:42;;;;;;;16.70;15.00;;;24.10;91.80;;;;;;5025858;28;20130;-66
2023/06/26 00:05:08;;;;;;;18.67;14.52;;;24.10;91.80;;;;;;5023398;28;20076;-66
2023/06/26 00:07:34;;;;;;;16.55;14.85;;;24.10;91.90;;;;;;5033332;28;20041;-65
2023/06/26 00:10:01;;;;;;;16.65;14.52;;;24.00;92.00;;;;;;5026891;28;20034;-66
2023/06/26 00:12:26;;;;;;;16.20;14.32;;;24.00;92.10;;;;;;5031795;28;20050;-65
2023/06/26 00:14:52;;;;;;;16.23;14.63;;;24.00;92.10;;;;;;5032881;28;20052;-66
2023/06/26 00:17:18;;;;;;;17.23;14.13;;;24.00;92.20;;;;;;5032777;28;20052;-63
2023/06/26 00:19:44;;;;;;;17.52;15.73;;;23.80;92.50;;;;;;5020849;28;20083;-65
2023/06/26 00:22:10;;;;;;;18.05;14.98;;;23.60;92.90;;;;;;5031609;28;20026;-66
2023/06/26 00:24:36;;;;;;;15.68;14.18;;;23.50;93.10;;;;;;5033302;28;20077;-65
2023/06/26 00:27:01;;;;;;;15.52;13.93;;;23.40;93.20;;;;;;5032638;28;20076;-65
2023/06/26 00:29:27;;;;;;;15.73;14.23;;;23.30;93.60;;;;;;5019045;28;20088;-66
2023/06/26 00:31:52;;;;;;;17.33;14.13;;;23.20;93.80;;;;;;5026746;28;20087;-66
2023/06/26 00:34:19;;;;;;;16.25;14.55;;;23.10;94.10;;;;;;5033150;28;20041;-66
2023/06/26 00:36:45;;;;;;;16.92;15.20;;;23.00;94.40;;;;;;5021293;28;20036;-65
2023/06/26 00:39:11;;;;;;;17.50;15.70;;;22.90;94.60;;;;;;5028759;28;20112;-65
2023/06/26 00:41:37;;;;;;;18.15;15.40;;;22.90;94.70;;;;;;5032628;28;20113;-65
2023/06/26 00:44:04;;;;;;;18.02;16.27;;;22.70;95.00;;;;;;5025351;28;20377;-65
2023/06/26 00:46:30;;;;;;;17.52;15.82;;;22.60;95.20;;;;;;5020528;28;20050;-65
2023/06/26 00:48:58;;;;;;;17.33;15.63;;;22.60;95.50;;;;;;5031882;28;20392;-66
2023/06/26 00:51:24;;;;;;;16.45;14.80;;;22.50;95.70;;;;;;5026380;28;20078;-64
2023/06/26 00:53:50;;;;;;;16.55;14.88;;;22.50;95.80;;;;;;5025019;28;20073;-66
2023/06/26 00:56:18;;;;;;;17.08;15.23;;;22.50;95.90;;;;;;5031650;28;20064;-65
2023/06/26 00:58:45;;;;;;;17.05;15.35;;;22.30;96.10;;;;;;5032194;28;20037;-65
2023/06/26 01:01:15;;;;;;;16.42;14.60;;;22.20;96.20;;;;;;5025928;28;20378;-65
2023/06/26 01:03:42;;;;;;;17.20;15.40;;;22.00;96.60;;;;;;5022031;28;20112;-65
2023/06/26 01:06:11;;;;;;;16.48;14.77;;;22.00;96.90;;;;;;5032115;28;20044;-65
2023/06/26 01:08:37;;;;;;;15.93;14.32;;;21.90;97.10;;;;;;5024144;28;20543;-64
2023/06/26 01:11:03;;;;;;;16.42;14.73;;;21.90;97.20;;;;;;5009003;28;20045;-65
2023/06/26 01:13:30;;;;;;;17.92;15.88;;;21.80;97.30;;;;;;5031407;28;20040;-64
2023/06/26 01:15:57;;;;;;;16.42;14.63;;;21.90;97.40;;;;;;5032534;28;20041;-65
2023/06/26 01:18:24;;;;;;;15.93;14.13;;;21.70;97.50;;;;;;5027046;28;20400;-65
2023/06/26 01:20:50;;;;;;;16.50;14.13;;;21.70;97.90;;;;;;5023540;28;20045;-65
2023/06/26 01:23:23;;;;;;;14.80;13.20;;;21.50;98.30;;;;;;5031672;28;20037;-65
2023/06/26 01:26:01;;;;;;;15.98;14.38;;;21.50;98.70;;;;;;5024438;28;20053;-66
2023/06/26 01:28:28;;;;;;;17.70;15.90;;;21.60;98.60;;;;;;5026919;28;20510;-65
2023/06/26 01:30:54;;;;;;;17.50;15.70;;;21.70;98.50;;;;;;5031928;28;20049;-65
2023/06/26 01:33:20;;;;;;;16.67;14.88;;;21.70;98.70;;;;;;5028483;28;20092;-66
2023/06/26 01:35:46;;;;;;;17.50;15.80;;;21.70;98.80;;;;;;5022798;28;20037;-64
2023/06/26 01:38:17;;;;;;;16.25;14.30;;;21.70;98.90;;;;;;5013863;28;20069;-65
2023/06/26 01:40:43;;;;;;;15.82;14.20;;;21.60;99.10;;;;;;5028550;28;20033;-65
2023/06/26 01:43:15;;;;;;;16.75;15.05;;;21.40;99.30;;;;;;5014626;28;20129;-64
2023/06/26 01:45:42;;;;;;;17.33;15.25;;;21.40;99.70;;;;;;5025329;28;20033;-65
2023/06/26 01:48:11;;;;;;;16.85;15.05;;;21.20;99.90;;;;;;5030857;28;20044;-65
2023/06/26 01:50:38;;;;;;;17.55;15.55;;;21.30;99.90;;;;;;5022917;28;20062;-65
2023/06/26 01:53:15;;;;;;;18.48;16.17;;;21.40;99.90;;;;;;5025219;28;20395;-66
2023/06/26 01:55:52;;;;;;;18.10;15.85;;;21.40;99.90;;;;;;5024295;28;20041;-65
2023/06/26 01:58:22;;;;;;;21.40;16.55;;;21.40;99.90;;;;;;5024800;28;20042;-65
2023/06/26 02:00:48;;;;;;;20.77;16.97;;;21.50;99.80;;;;;;5020071;28;20527;-65
2023/06/26 02:03:13;;;;;;;19.83;16.70;;;21.50;99.70;;;;;;5028175;28;20117;-65
2023/06/26 02:05:39;;;;;;;18.35;16.48;;;21.50;99.70;;;;;;5031462;28;20038;-65
2023/06/26 02:08:05;;;;;;;17.40;15.60;;;21.50;99.80;;;;;;5020851;28;20550;-66
2023/06/26 02:10:31;;;;;;;16.50;14.80;;;21.40;99.90;;;;;;5028361;28;20044;-64
2023/06/26 02:12:57;;;;;;;19.50;17.35;;;21.40;99.90;;;;;;5031365;28;20407;-65
2023/06/26 02:15:22;;;;;;;19.33;16.20;;;21.40;99.90;;;;;;5026526;28;20103;-66
2023/06/26 02:17:48;;;;;;;20.77;18.20;;;21.40;99.90;;;;;;5025822;28;20065;-66
2023/06/26 02:20:15;;;;;;;20.20;17.33;;;21.30;99.90;;;;;;5030799;28;20037;-65
2023/06/26 02:22:41;;;;;;;19.20;17.13;;;21.40;99.90;;;;;;5029041;28;20083;-65
2023/06/26 02:25:06;;;;;;;19.77;17.65;;;21.40;99.90;;;;;;5025490;28;20057;-65
2023/06/26 02:27:32;;;;;;;18.08;16.25;;;21.20;99.90;;;;;;5030346;28;20046;-65
2023/06/26 02:29:58;;;;;;;17.75;15.95;;;21.10;99.90;;;;;;5031358;28;20041;-65
2023/06/26 02:32:23;;;;;;;18.98;16.92;;;21.00;99.90;;;;;;5023877;28;20069;-64
2023/06/26 02:34:51;;;;;;;20.08;16.30;;;20.90;99.90;;;;;;5020451;28;20116;-65
2023/06/26 02:37:17;;;;;;;17.15;15.00;;;20.90;99.90;;;;;;5030441;28;20046;-63
2023/06/26 02:39:43;;;;;;;18.00;14.93;;;20.90;99.90;;;;;;5024631;28;20025;-65
2023/06/26 02:42:08;;;;;;;17.17;14.65;;;21.00;99.90;;;;;;5012723;28;20034;-66
2023/06/26 02:44:34;;;;;;;18.92;16.00;;;21.00;99.90;;;;;;5033530;28;20092;-65
2023/06/26 02:46:59;;;;;;;17.88;16.00;;;21.10;99.90;;;;;;5035048;28;20029;-65
2023/06/26 02:49:25;;;;;;;18.45;16.55;;;21.10;99.90;;;;;;5030233;28;20122;-65
2023/06/26 02:51:51;;;;;;;18.35;16.40;;;21.10;99.90;;;;;;5027143;28;20033;-65
2023/06/26 02:54:16;;;;;;;21.25;17.05;;;21.00;99.90;;;;;;5034605;28;20033;-65
2023/06/26 02:56:42;;;;;;;20.50;16.85;;;21.00;99.90;;;;;;5026644;28;20034;-65
2023/06/26 02:59:08;;;;;;;19.15;17.13;;;21.00;99.90;;;;;;5027061;28;20037;-65
2023/06/26 03:01:33;;;;;;;20.30;17.90;;;21.00;99.90;;;;;;5034575;28;20037;-63
2023/06/26 03:04:00;;;;;;;21.25;17.92;;;20.90;99.90;;;;;;5034570;28;20543;-62
2023/06/26 03:06:27;;;;;;;21.35;17.75;;;20.90;99.90;;;;;;5027055;28;20045;-63
2023/06/26 03:08:53;;;;;;;19.83;17.27;;;20.80;99.90;;;;;;5032920;28;20052;-64
2023/06/26 03:11:19;;;;;;;20.95;18.33;;;20.90;99.90;;;;;;5034128;28;20037;-63
2023/06/26 03:13:45;;;;;;;25.50;17.80;;;20.90;99.90;;;;;;5031682;28;20038;-63
2023/06/26 03:16:11;;;;;;;20.13;17.73;;;20.90;99.90;;;;;;5023451;28;20036;-64
2023/06/26 03:18:37;;;;;;;22.55;18.95;;;20.80;99.90;;;;;;5032720;28;20041;-62
2023/06/26 03:21:02;;;;;;;21.33;18.98;;;20.80;99.90;;;;;;5034670;28;20033;-62
2023/06/26 03:23:28;;;;;;;21.42;18.55;;;20.70;99.90;;;;;;5027003;28;20038;-63
2023/06/26 03:25:54;;;;;;;23.25;19.67;;;20.70;99.90;;;;;;5033510;28;20511;-63
2023/06/26 03:28:19;;;;;;;21.88;19.05;;;20.70;99.90;;;;;;5033932;28;20038;-63
2023/06/26 03:30:45;;;;;;;21.15;18.85;;;20.70;99.90;;;;;;5034339;28;20438;-63
2023/06/26 03:33:11;;;;;;;22.55;19.08;;;20.60;99.90;;;;;;5017635;28;20045;-63
2023/06/26 03:35:37;;;;;;;24.13;20.15;;;20.50;99.90;;;;;;5027468;28;20061;-63
2023/06/26 03:38:04;;;;;;;22.45;19.58;;;20.50;99.90;;;;;;5034062;28;20061;-62
2023/06/26 03:40:30;;;;;;;22.60;20.00;;;20.50;99.90;;;;;;5025260;28;20045;-63
2023/06/26 03:42:55;;;;;;;21.70;19.27;;;20.60;99.90;;;;;;5028559;28;20410;-62
2023/06/26 03:45:21;;;;;;;23.17;20.70;;;20.60;99.90;;;;;;5011398;28;20081;-63
2023/06/26 03:47:48;;;;;;;22.48;20.08;;;20.60;99.90;;;;;;5023376;28;20084;-63
2023/06/26 03:50:15;;;;;;;24.80;19.85;;;20.70;99.90;;;;;;5030620;28;20037;-64
2023/06/26 03:52:40;;;;;;;22.52;20.05;;;20.70;99.90;;;;;;5033825;28;20041;-63
2023/06/26 03:55:06;;;;;;;22.33;19.75;;;20.70;99.90;;;;;;5019342;28;20038;-64
2023/06/26 03:57:32;;;;;;;22.23;19.75;;;20.70;99.90;;;;;;5027578;28;20091;-63
2023/06/26 03:59:57;;;;;;;23.13;19.98;;;20.70;99.90;;;;;;5033073;28;20127;-63
2023/06/26 04:02:23;;;;;;;22.50;19.17;;;20.70;99.90;;;;;;5033198;28;20084;-62
2023/06/26 04:04:49;;;;;;;23.92;19.80;;;20.80;99.90;;;;;;5022730;28;20034;-63
2023/06/26 04:07:14;;;;;;;22.27;19.30;;;20.80;99.90;;;;;;5030291;28;20033;-64
2023/06/26 04:09:40;;;;;;;22.52;18.92;;;20.80;99.90;;;;;;5033172;28;20045;-63
2023/06/26 04:12:06;;;;;;;23.40;19.00;;;20.90;99.90;;;;;;5023874;28;20108;-62
2023/06/26 04:14:32;;;;;;;22.02;18.40;;;20.90;99.90;;;;;;5021848;28;20030;-63
2023/06/26 04:17:02;;;;;;;24.33;19.05;;;21.00;99.90;;;;;;5032968;28;20115;-63
2023/06/26 04:19:29;;;;;;;20.77;18.30;;;21.00;99.90;;;;;;5033241;28;20064;-62
2023/06/26 04:21:54;;;;;;;22.38;18.05;;;21.10;99.90;;;;;;5017971;28;20029;-63
2023/06/26 04:24:20;;;;;;;22.15;19.05;;;21.10;99.90;;;;;;5030904;28;20040;-62
2023/06/26 04:26:46;;;;;;;21.83;19.48;;;21.20;99.90;;;;;;5032757;28;20052;-63
2023/06/26 04:29:11;;;;;;;21.58;19.02;;;21.10;99.90;;;;;;5021335;28;20439;-63
2023/06/26 04:31:38;;;;;;;26.42;18.73;;;21.10;99.90;;;;;;5025069;28;20084;-63
2023/06/26 04:34:04;;;;;;;23.30;18.60;;;21.20;99.90;;;;;;5032883;28;20092;-62
2023/06/26 04:36:31;;;;;;;20.48;18.27;;;21.20;99.90;;;;;;5030822;28;20496;-63
2023/06/26 04:38:57;;;;;;;20.58;17.63;;;21.20;99.90;;;;;;5022709;28;20550;-63
2023/06/26 04:41:22;;;;;;;20.75;17.52;;;21.20;99.90;;;;;;5030349;28;20037;-63
2023/06/26 04:43:48;;;;;;;28.30;17.17;;;21.30;99.90;;;;;;5032532;28;20095;-62
2023/06/26 04:46:14;;;;;;;21.27;16.35;;;21.30;99.90;;;;;;5020160;28;20096;-63
2023/06/26 04:48:39;;;;;;;20.70;14.82;;;21.30;99.90;;;;;;5020467;28;20540;-63
2023/06/26 04:51:05;;;;;;;17.92;14.48;;;21.40;99.90;;;;;;5012766;28;20084;-63
2023/06/26 04:53:30;;;;;;;16.15;13.63;;;21.50;99.90;;;;;;5017825;28;20038;-64
2023/06/26 04:55:56;;;;;;;17.63;13.18;;;21.60;99.90;;;;;;5005229;28;20037;-64
2023/06/26 04:58:22;;;;;;;16.15;11.85;;;21.70;99.90;;;;;;5022813;28;20507;-64
2023/06/26 05:00:48;;;;;;;17.15;12.25;;;21.80;99.90;;;;;;5023627;28;20041;-65
2023/06/26 05:03:16;;;;;;;14.55;11.55;;;21.80;99.90;;;;;;5019191;28;20044;-63
2023/06/26 05:05:42;;;;;;;16.17;11.05;;;21.90;99.90;;;;;;5018140;28;20091;-63
2023/06/26 05:08:20;;;;;;;16.48;10.93;;;21.80;99.90;;;;;;5021880;28;20045;-63
2023/06/26 05:10:46;;;;;;;14.10;9.80;;;21.80;99.90;;;;;;5002143;28;20046;-63
2023/06/26 05:13:15;;;;;;;16.48;10.65;;;21.70;99.90;;;;;;5018714;28;20037;-64
2023/06/26 05:15:41;;;;;;;17.75;9.60;;;21.70;99.90;;;;;;5008940;28;20030;-63
2023/06/26 05:18:07;;;;;;;15.90;9.68;;;21.70;99.90;;;;;;5016735;28;20499;-65
2023/06/26 05:20:34;;;;;;;13.88;9.50;;;21.60;99.90;;;;;;5016016;28;20107;-65
2023/06/26 05:23:02;;;;;;;15.27;10.13;;;21.60;99.90;;;;;;5017836;28;20485;-64
2023/06/26 05:25:32;;;;;;;15.65;9.63;;;21.50;99.90;;;;;;5022132;28;20033;-63
2023/06/26 05:27:58;;;;;;;14.70;9.93;;;21.40;99.90;;;;;;5018796;28;20040;-63
2023/06/26 05:30:25;;;;;;;18.70;9.73;;;21.40;99.90;;;;;;5022158;28;20049;-63
2023/06/26 05:32:52;;;;;;;17.23;10.00;;;21.50;99.90;;;;;;5022465;28;20132;-64
2023/06/26 05:35:19;;;;;;;18.23;9.13;;;21.50;99.90;;;;;;5018317;28;20037;-66
2023/06/26 05:37:46;;;;;;;26.00;9.38;;;21.50;99.90;;;;;;5013413;28;20045;-66
2023/06/26 05:40:13;;;;;;;18.52;9.00;;;21.50;99.90;;;;;;5023425;28;20048;-63
2023/06/26 05:42:38;;;;;;;17.05;9.05;;;21.60;99.90;;;;;;5014348;28;20531;-65
2023/06/26 05:45:04;;;;;;;14.55;9.40;;;21.70;99.90;;;;;;5014328;28;20034;-65
2023/06/26 05:47:30;;;;;;;23.73;8.93;;;21.70;99.90;;;;;;5014492;28;20030;-65
2023/06/26 05:49:56;;;;;;;15.43;8.48;;;21.60;99.90;;;;;;5024364;28;20083;-64
2023/06/26 05:52:22;;;;;;;20.33;8.48;;;21.50;99.90;;;;;;5022559;28;20025;-66
2023/06/26 05:54:47;;;;;;;14.35;8.00;;;21.40;99.90;;;;;;5022575;28;20120;-64
2023/06/26 05:57:15;;;;;;;14.35;7.93;;;21.30;99.90;;;;;;5028214;28;20037;-65
2023/06/26 05:59:42;;;;;;;14.88;8.63;;;21.20;99.90;;;;;;5031608;28;20403;-66
2023/06/26 06:02:08;;;;;;;16.92;8.60;;;21.10;99.90;;;;;;5013779;28;20045;-66
2023/06/26 06:04:34;;;;;;;15.43;8.32;;;21.10;99.90;;;;;;5023464;28;20045;-66
2023/06/26 06:07:00;;;;;;;15.45;9.07;;;21.00;99.90;;;;;;5031200;28;20041;-64
2023/06/26 06:09:26;;;;;;;16.38;8.68;;;21.00;99.90;;;;;;5022689;28;20046;-66
2023/06/26 06:11:51;;;;;;;12.82;8.20;;;21.10;99.90;;;;;;5036190;28;20467;-65
2023/06/26 06:14:17;;;;;;;16.20;7.85;;;21.20;99.90;;;;;;5033583;28;20045;-65
2023/06/26 06:16:42;;;;;;;13.70;8.20;;;21.30;99.90;;;;;;5031520;28;20055;-65
2023/06/26 06:19:11;;;;;;;19.05;8.75;;;21.40;99.90;;;;;;5022420;28;20404;-66
2023/06/26 06:21:36;;;;;;;14.23;8.35;;;21.50;99.90;;;;;;5035020;28;20048;-66
2023/06/26 06:24:03;;;;;;;12.52;8.00;;;21.60;99.90;;;;;;5031549;28;20041;-66
2023/06/26 06:26:28;;;;;;;12.73;7.53;;;21.70;99.90;;;;;;5022681;28;20042;-66
2023/06/26 06:28:54;;;;;;;14.43;7.45;;;21.80;99.90;;;;;;5032096;28;20060;-66
2023/06/26 06:31:20;;;;;;;14.40;7.57;;;21.60;99.90;;;;;;5035213;28;20408;-65
2023/06/26 06:33:45;;;;;;;15.90;6.68;;;21.60;99.90;;;;;;5022724;28;20396;-66
2023/06/26 06:36:11;;;;;;;9.95;5.53;;;21.50;99.90;;;;;;5006936;28;20034;-64
2023/06/26 06:38:37;;;;;;;13.40;5.35;;;21.40;99.90;;;;;;5034750;28;20125;-66
2023/06/26 06:41:02;;;;;;;8.73;4.53;;;21.40;99.90;;;;;;5034897;28;20048;-66
2023/06/26 06:43:28;;;;;;;7.80;4.00;;;21.40;99.90;;;;;;5021563;28;20080;-66
2023/06/26 06:45:54;;;;;;;9.48;4.18;;;21.50;99.90;;;;;;5034432;28;20057;-65
2023/06/26 06:48:19;;;;;;;7.72;3.58;;;21.60;99.90;;;;;;5034808;28;20634;-66
2023/06/26 06:50:45;;;;;;;7.60;3.60;;;21.60;99.90;;;;;;5027738;28;20061;-64
2023/06/26 06:53:10;;;;;;;7.15;3.00;;;21.60;99.90;;;;;;5030271;28;20038;-65
2023/06/26 06:55:36;;;;;;;6.78;3.10;;;21.60;99.90;;;;;;5034285;28;20049;-65
2023/06/26 06:58:02;;;;;;;6.60;2.90;;;21.60;99.90;;;;;;5034528;28;20067;-65
2023/06/26 07:00:28;;;;;;;5.53;2.30;;;21.70;99.90;;;;;;5021922;28;20038;-66
2023/06/26 07:02:54;;;;;;;7.60;2.35;;;21.80;99.90;;;;;;5024433;28;20029;-65
2023/06/26 07:05:19;;;;;;;5.78;2.10;;;21.90;99.90;;;;;;5033556;28;20071;-66
2023/06/26 07:07:45;;;;;;;4.28;2.10;;;21.90;99.90;;;;;;5034267;28;20072;-65
2023/06/26 07:10:12;;;;;;;5.38;2.47;;;22.10;99.90;;;;;;5024114;28;20109;-66
2023/06/26 07:12:38;;;;;;;4.40;2.28;;;22.20;99.90;;;;;;5028025;28;20099;-63
2023/06/26 07:15:05;;;;;;;10.02;2.60;;;22.20;99.90;;;;;;5029429;28;20029;-65
2023/06/26 07:17:32;;;;;;;7.43;2.30;;;22.30;99.90;;;;;;5025898;28;20072;-65
2023/06/26 07:19:57;;;;;;;6.97;2.42;;;22.20;99.90;;;;;;5019985;28;20042;-63
2023/06/26 07:22:23;;;;;;;5.28;2.05;;;22.10;99.90;;;;;;5003854;28;20036;-65
2023/06/26 07:24:49;;;;;;;6.15;2.03;;;22.10;99.90;;;;;;5018862;28;20041;-63
2023/06/26 07:27:16;;;;;;;6.55;2.33;;;22.10;99.90;;;;;;5006728;28;20395;-65
2023/06/26 07:29:42;;;;;;;7.28;3.03;;;22.10;99.90;;;;;;4984990;28;20140;-64
2023/06/26 07:32:08;;;;;;;5.32;2.60;;;22.10;99.90;;;;;;5021741;28;20072;-66
2023/06/26 07:34:33;;;;;;;7.03;2.40;;;22.10;99.90;;;;;;5006374;28;20069;-65
2023/06/26 07:36:59;;;;;;;4.65;2.42;;;22.10;99.90;;;;;;5022791;28;20030;-66
2023/06/26 07:39:25;;;;;;;5.07;2.38;;;22.20;99.90;;;;;;5019733;28;26096;-65
2023/06/26 07:41:51;;;;;;;9.52;2.45;;;22.30;99.90;;;;;;5012460;28;20535;-67
2023/06/26 07:44:17;;;;;;;3.35;2.35;;;22.30;99.90;;;;;;5025587;28;20049;-65
2023/06/26 07:46:44;;;;;;;2.92;2.20;;;22.30;99.90;;;;;;5028953;28;20052;-67
2023/06/26 07:49:10;;;;;;;5.35;2.30;;;22.50;99.90;;;;;;5004890;28;20041;-66
2023/06/26 07:51:36;;;;;;;5.25;2.20;;;22.50;99.90;;;;;;5023887;28;20107;-66
2023/06/26 07:54:01;;;;;;;4.85;2.25;;;22.60;99.90;;;;;;5033066;28;20033;-67
2023/06/26 07:56:27;;;;;;;8.13;2.10;;;22.60;99.90;;;;;;5019418;28;20069;-65
2023/06/26 07:58:52;;;;;;;4.20;2.10;;;22.50;99.90;;;;;;5005526;28;20076;-67
2023/06/26 08:01:18;;;;;;;3.97;2.10;;;22.70;99.90;;;;;;5015368;28;20111;-66
2023/06/26 08:03:44;;;;;;;9.18;2.50;;;22.80;99.90;;;;;;5027645;28;20484;-65
2023/06/26 08:06:10;;;;;;;6.38;2.33;;;22.70;99.90;;;;;;5027412;28;20139;-66
2023/06/26 08:08:35;;;;;;;6.57;2.40;;;22.70;99.90;;;;;;5023404;28;20037;-67
2023/06/26 08:11:01;;;;;;;4.30;2.00;;;22.60;99.80;;;;;;5025862;28;20040;-66
2023/06/26 08:13:27;;;;;;;8.63;2.95;;;22.70;99.80;;;;;;5039138;28;20135;-67
2023/06/26 08:15:52;;;;;;;3.05;1.98;;;22.60;99.90;;;;;;5031203;28;20071;-65
2023/06/26 08:18:18;;;;;;;3.63;2.13;;;22.60;99.70;;;;;;5028816;28;20029;-66
2023/06/26 08:20:44;;;;;;;3.72;1.90;;;22.60;99.00;;;;;;5033056;28;20065;-67
2023/06/26 08:23:10;;;;;;;7.97;2.08;;;22.60;98.80;;;;;;5018352;28;20120;-67
2023/06/26 08:25:35;;;;;;;4.80;2.20;;;22.70;98.70;;;;;;5025165;28;20546;-66
2023/06/26 08:28:01;;;;;;;3.08;1.90;;;22.80;98.40;;;;;;5031423;28;20553;-65
2023/06/26 08:30:28;;;;;;;3.50;1.90;;;22.80;98.20;;;;;;5029641;28;20137;-67
2023/06/26 08:32:56;;;;;;;3.53;1.92;;;22.80;98.30;;;;;;5023171;28;20100;-66
2023/06/26 08:35:22;;;;;;;4.68;2.00;;;23.00;98.20;;;;;;5026530;28;20038;-66
2023/06/26 08:37:48;;;;;;;3.47;2.30;;;23.10;98.30;;;;;;5032365;28;20427;-67
2023/06/26 08:40:17;;;;;;;5.50;2.25;;;23.10;98.30;;;;;;5016760;28;20034;-66
2023/06/26 08:42:45;;;;;;;5.57;2.53;;;22.90;98.30;;;;;;5025597;28;20044;-66
2023/06/26 08:45:12;;;;;;;3.38;2.00;;;22.80;98.50;;;;;;5032386;28;20442;-67
2023/06/26 08:47:38;;;;;;;9.35;2.50;;;22.90;98.70;;;;;;5019100;28;20460;-65
2023/06/26 08:50:14;;;;;;;4.80;2.35;;;22.80;98.60;;;;;;5031573;28;20116;-67
2023/06/26 08:52:52;;;;;;;5.75;2.15;;;22.60;98.70;;;;;;5025209;28;20049;-67
2023/06/26 08:55:21;;;;;;;3.55;2.30;;;22.50;98.80;;;;;;5019119;28;20046;-64
2023/06/26 08:57:47;;;;;;;4.03;2.30;;;22.60;99.00;;;;;;5010023;28;20045;-66
2023/06/26 09:00:14;;;;;;;4.03;2.30;;;22.80;99.00;;;;;;5022559;28;20389;-66
2023/06/26 09:02:41;;;;;;;4.43;2.50;;;23.00;98.60;;;;;;5028120;28;20036;-66
2023/06/26 09:05:07;;;;;;;5.78;2.83;;;22.90;98.20;;;;;;5022090;28;20033;-67
2023/06/26 09:07:32;;;;;;;4.38;2.30;;;22.90;98.60;;;;;;5025109;28;20055;-67
2023/06/26 09:09:58;;;;;;;4.28;2.40;;;22.80;98.50;;;;;;5023353;28;20091;-67
2023/06/26 09:12:26;;;;;;;4.50;2.40;;;22.70;98.30;;;;;;5025850;28;20112;-66
2023/06/26 09:14:55;;;;;;;5.65;2.40;;;23.10;98.60;;;;;;5027107;28;20029;-66
2023/06/26 09:17:38;;;;;;;5.82;2.55;;;23.10;98.40;;;;;;5031508;28;20072;-66
2023/06/26 09:20:04;;;;;;;5.40;2.80;;;22.80;98.40;;;;;;5032362;28;20037;-66
2023/06/26 09:22:35;;;;;;;4.05;2.30;;;22.50;98.50;;;;;;5023238;28;20038;-67
2023/06/26 09:25:01;;;;;;;6.18;3.03;;;22.60;98.60;;;;;;5021357;28;20030;-65
2023/06/26 09:27:26;;;;;;;7.00;2.70;;;22.70;98.40;;;;;;5039379;28;20056;-67
2023/06/26 09:29:52;;;;;;;4.90;2.80;;;22.90;98.40;;;;;;5023266;28;20040;-67
2023/06/26 09:32:18;;;;;;;7.18;3.10;;;23.00;98.30;;;;;;5022400;28;20040;-67
2023/06/26 09:34:44;;;;;;;4.90;3.00;;;22.70;98.10;;;;;;5031674;28;20041;-66
2023/06/26 09:37:13;;;;;;;3.63;2.60;;;22.70;98.30;;;;;;5026803;28;20084;-66
2023/06/26 09:39:38;;;;;;;5.43;2.70;;;22.90;98.50;;;;;;5020846;28;20506;-67
2023/06/26 09:42:06;;;;;;;5.18;2.90;;;23.10;98.40;;;;;;5031223;28;20033;-67
2023/06/26 09:44:33;;;;;;;10.57;3.88;;;23.40;98.30;;;;;;5032135;28;20041;-66
2023/06/26 09:47:01;;;;;;;6.90;3.50;;;23.50;97.70;;;;;;5020729;28;20049;-67
2023/06/26 09:49:27;;;;;;;5.47;3.28;;;23.50;97.90;;;;;;5029751;28;20148;-67
2023/06/26 09:51:53;;;;;;;5.93;3.50;;;23.30;97.50;;;;;;5031687;28;20103;-66
2023/06/26 09:54:22;;;;;;;9.05;3.35;;;23.00;97.80;;;;;;5018187;28;20045;-67
2023/06/26 09:56:47;;;;;;;5.93;3.53;;;23.20;98.10;;;;;;5026755;28;20127;-67
2023/06/26 09:59:15;;;;;;;7.93;2.97;;;23.20;98.00;;;;;;5031224;28;20078;-67
2023/06/26 10:01:44;;;;;;;7.97;3.17;;;23.00;96.90;;;;;;5023847;28;20030;-66
2023/06/26 10:04:10;;;;;;;5.40;2.95;;;22.90;96.80;;;;;;5026893;28;20060;-66
2023/06/26 10:06:57;;;;;;;5.07;2.88;;;23.00;96.80;;;;;;5031046;28;20393;-67
2023/06/26 10:09:24;;;;;;;5.28;2.80;;;23.10;96.20;;;;;;5031578;28;20116;-66
2023/06/26 10:11:59;;;;;;;6.05;2.80;;;23.40;96.30;;;;;;5019306;28;20065;-67
2023/06/26 10:14:33;;;;;;;6.97;2.90;;;23.40;95.40;;;;;;5029254;28;20038;-67
2023/06/26 10:17:03;;;;;;;5.18;2.85;;;23.40;94.70;;;;;;5031247;28;20056;-66
2023/06/26 10:19:31;;;;;;;6.57;2.90;;;23.50;95.20;;;;;;5024008;28;20089;-65
2023/06/26 10:21:58;;;;;;;6.22;3.00;;;23.40;94.70;;;;;;5024426;28;20045;-66
2023/06/26 10:24:28;;;;;;;4.60;2.67;;;23.00;95.20;;;;;;5031083;28;20034;-66
2023/06/26 10:27:05;;;;;;;8.50;3.30;;;22.80;95.10;;;;;;5022007;28;20057;-65
2023/06/26 10:29:31;;;;;;;6.82;3.17;;;23.10;95.20;;;;;;5008559;28;20502;-67
2023/06/26 10:32:00;;;;;;;6.50;3.30;;;23.20;95.20;;;;;;5026716;28;20498;-66
2023/06/26 10:34:25;;;;;;;5.40;3.10;;;23.30;94.80;;;;;;5027524;28;20601;-65
2023/06/26 10:37:02;;;;;;;5.57;2.80;;;23.40;95.00;;;;;;5017901;28;20060;-66
2023/06/26 10:39:32;;;;;;;3.50;2.80;;;23.60;93.90;;;;;;5021541;28;20052;-66
2023/06/26 10:42:09;;;;;;;8.95;3.10;;;23.80;93.70;;;;;;5017953;28;20034;-67
2023/06/26 10:44:43;;;;;;;7.32;2.70;;;23.70;93.30;;;;;;5029447;28;20057;-66
2023/06/26 10:47:09;;;;;;;5.85;3.17;;;23.80;91.60;;;;;;5029435;28;20037;-66
2023/06/26 10:49:36;;;;;;;5.22;3.00;;;24.00;92.60;;;;;;5016396;28;20107;-67
2023/06/26 10:52:02;;;;;;;7.25;2.88;;;24.30;92.90;;;;;;5018886;28;20739;-66
2023/06/26 10:54:34;;;;;;;7.18;2.90;;;24.30;91.90;;;;;;5019680;28;20038;-66
2023/06/26 10:57:01;;;;;;;8.10;3.10;;;24.10;90.60;;;;;;5025373;28;20100;-66
2023/06/26 10:59:31;;;;;;;7.55;3.08;;;24.00;91.70;;;;;;5029626;28;20037;-66
2023/06/26 11:02:15;;;;;;;13.23;2.70;;;24.00;92.10;;;;;;5022445;28;20033;-66
2023/06/26 11:04:53;;;;;;;5.80;2.15;;;24.10;90.60;;;;;;5013397;28;20432;-66
2023/06/26 11:07:24;;;;;;;6.28;2.60;;;24.10;88.10;;;;;;5010482;28;20041;-66
2023/06/26 11:10:08;;;;;;;4.90;2.72;;;23.90;88.30;;;;;;5020002;28;20045;-66
2023/06/26 11:12:41;;;;;;;5.15;2.80;;;23.90;89.20;;;;;;5018605;28;20111;-67
2023/06/26 11:15:11;;;;;;;7.38;2.65;;;23.90;90.30;;;;;;5029797;28;20039;-67
2023/06/26 11:17:37;;;;;;;5.85;2.90;;;23.60;89.30;;;;;;5031802;28;20487;-66
2023/06/26 11:20:07;;;;;;;7.78;2.70;;;23.60;90.20;;;;;;5030112;28;20075;-65
2023/06/26 11:22:37;;;;;;;7.03;2.67;;;23.80;88.50;;;;;;5025683;28;20468;-67
2023/06/26 11:25:04;;;;;;;4.60;2.75;;;24.00;88.10;;;;;;5029797;28;20032;-65
2023/06/26 11:27:43;;;;;;;4.47;2.60;;;24.10;87.70;;;;;;5017518;28;20503;-67
2023/06/26 11:30:11;;;;;;;6.95;2.33;;;23.90;89.00;;;;;;5024742;28;20041;-66
2023/06/26 11:32:38;;;;;;;8.48;2.50;;;24.00;88.40;;;;;;5008155;28;20042;-66
2023/06/26 11:35:04;;;;;;;5.97;2.88;;;23.80;88.60;;;;;;5032402;28;20037;-66
2023/06/26 11:37:31;;;;;;;6.63;2.72;;;23.40;88.50;;;;;;5012564;23;20493;-64
2023/06/26 11:39:57;;;;;;;8.77;2.85;;;23.40;89.50;;;;;;4973711;28;20049;-63
2023/06/26 11:42:25;;;;;;;8.10;2.90;;;23.60;90.40;;;;;;4960567;28;20031;-65
2023/06/26 11:44:51;;;;;;;6.28;2.53;;;23.20;90.30;;;;;;4965233;28;20045;-64
2023/06/26 11:47:19;;;;;;;5.03;2.45;;;23.10;90.30;;;;;;4954519;28;20047;-65
2023/06/26 11:49:45;;;;;;;6.05;2.40;;;23.00;90.20;;;;;;4953626;29;20112;-65
2023/06/26 11:52:12;;;;;;;7.88;2.72;;;22.80;89.10;;;;;;4944746;28;20092;-65
2023/06/26 11:54:38;;;;;;;6.32;2.20;;;23.20;89.10;;;;;;4953487;29;20050;-64
2023/06/26 11:57:05;;;;;;;6.03;2.35;;;23.50;89.30;;;;;;4952404;28;20035;-65
2023/06/26 11:59:50;;;;;;;5.15;2.15;;;23.70;88.40;;;;;;4945427;29;20043;-65
2023/06/26 12:02:16;;;;;;;5.03;2.00;;;23.90;85.00;;;;;;4949769;28;20042;-64
2023/06/26 12:04:43;;;;;;;5.03;1.73;;;23.90;86.10;;;;;;4949782;28;20039;-65
2023/06/26 12:07:10;;;;;;;4.45;1.98;;;23.80;82.50;;;;;;4960704;28;20038;-65
2023/06/26 12:09:40;;;;;;;5.07;1.95;;;24.10;80.30;;;;;;4953178;28;20039;-65
2023/06/26 12:12:07;;;;;;;3.92;1.60;;;24.20;81.10;;;;;;4952655;29;20551;-64
2023/06/26 12:14:34;;;;;;;4.72;1.58;;;24.10;80.20;;;;;;4943321;29;20043;-64
2023/06/26 12:17:08;;;;;;;4.07;1.67;;;23.90;79.80;;;;;;4940241;29;20517;-65
2023/06/26 12:19:36;;;;;;;4.13;1.65;;;23.90;80.80;;;;;;4952322;28;20036;-64
2023/06/26 12:22:06;;;;;;;3.63;2.03;;;24.20;81.80;;;;;;4954967;29;20046;-64
2023/06/26 12:24:32;;;;;;;3.25;1.63;;;24.50;80.70;;;;;;4954876;29;20435;-65
2023/06/26 12:26:57;;;;;;;4.57;1.83;;;24.40;81.90;;;;;;4943998;28;20046;-64
2023/06/26 12:29:33;;;;;;;2.60;1.50;;;24.20;81.90;;;;;;4952522;28;20059;-65
2023/06/26 12:31:59;;;;;;;3.42;1.65;;;24.20;80.30;;;;;;4951429;29;20184;-64
2023/06/26 12:34:33;;;;;;;3.88;1.70;;;24.20;81.30;;;;;;4949219;28;20402;-64
2023/06/26 12:37:13;;;;;;;5.63;1.73;;;24.00;80.60;;;;;;4950284;28;20126;-64